Weather at Little Deer Airport

Public forecast

Using degrees Fahrenheit for public forecast. Weather courtesy of forecast.io.

Closest aviation weather report (METAR) to Little Deer Airport

Report is more than 6 hours old.

Closest report is Immokalee Regional Airport, 31.1 nm (57.5 km) NW. Retrieved 2020/09/26 14:35 UTC (14 hours ago):

KIMM 261435Z AUTO 28006KT 10SM 31/24 A3001 RMK AO2 PWINO

Closest aviation forecast (TAF) to Little Deer Airport

Closest forecast is Miami Executive Airport, 40.0 nm (74.1 km) SE. Retrieved 2020-09-27 00:30 UTC (4 hours ago):

TAF KTMB 262328Z 2700/2724 17006KT P6SM VCTS SCT025CB BKN050 FM270100 VRB03KT P6SM FEW025 SCT035 FM271500 11006KT P6SM SCT025 SCT250 PROB30 2718/2722 6SM TSRA SCT025CB BKN050